sensor_id;sensor_type;location;lat;lon;timestamp;temperature;humidity
17442;DHT22;8838;50.144;8.176;2023-03-12T00:01:16;-1.40;99.90
17442;DHT22;8838;50.144;8.176;2023-03-12T00:03:47;-1.40;99.90
17442;DHT22;8838;50.144;8.176;2023-03-12T00:06:15;-1.40;99.90
17442;DHT22;8838;50.144;8.176;2023-03-12T00:08:42;-1.40;99.90
17442;DHT22;8838;50.144;8.176;2023-03-12T00:11:11;-1.40;99.90
17442;DHT22;8838;50.144;8.176;2023-03-12T00:13:38;-1.50;99.90
17442;DHT22;8838;50.144;8.176;2023-03-12T00:16:07;-1.50;99.90
17442;DHT22;8838;50.144;8.176;2023-03-12T00:18:34;-1.40;99.90
17442;DHT22;8838;50.144;8.176;2023-03-12T00:21:03;-1.40;99.90
17442;DHT22;8838;50.144;8.176;2023-03-12T00:23:30;-1.30;99.90
17442;DHT22;8838;50.144;8.176;2023-03-12T00:26:01;-1.20;99.90
17442;DHT22;8838;50.144;8.176;2023-03-12T00:28:28;-1.10;99.90
17442;DHT22;8838;50.144;8.176;2023-03-12T00:30:54;-1.10;99.90
17442;DHT22;8838;50.144;8.176;2023-03-12T00:33:23;-1.00;99.90
17442;DHT22;8838;50.144;8.176;2023-03-12T00:35:49;-1.00;99.90
17442;DHT22;8838;50.144;8.176;2023-03-12T00:38:17;-1.00;99.90
17442;DHT22;8838;50.144;8.176;2023-03-12T00:40:44;-0.90;99.90
17442;DHT22;8838;50.144;8.176;2023-03-12T00:43:11;-0.90;99.90
17442;DHT22;8838;50.144;8.176;2023-03-12T00:45:38;-0.80;99.90
17442;DHT22;8838;50.144;8.176;2023-03-12T00:48:05;-0.70;99.90
17442;DHT22;8838;50.144;8.176;2023-03-12T00:50:32;-0.70;99.90
17442;DHT22;8838;50.144;8.176;2023-03-12T00:52:59;-0.70;99.90
17442;DHT22;8838;50.144;8.176;2023-03-12T00:55:27;-0.70;99.90
17442;DHT22;8838;50.144;8.176;2023-03-12T00:57:54;-0.70;99.90
17442;DHT22;8838;50.144;8.176;2023-03-12T01:00:21;-0.60;99.90
17442;DHT22;8838;50.144;8.176;2023-03-12T01:02:47;-0.70;99.90
17442;DHT22;8838;50.144;8.176;2023-03-12T01:05:14;-0.70;99.90
17442;DHT22;8838;50.144;8.176;2023-03-12T01:07:41;-0.70;99.90
17442;DHT22;8838;50.144;8.176;2023-03-12T01:10:09;-0.80;99.90
17442;DHT22;8838;50.144;8.176;2023-03-12T01:12:38;-0.80;99.90
17442;DHT22;8838;50.144;8.176;2023-03-12T01:15:06;-0.80;99.90
17442;DHT22;8838;50.144;8.176;2023-03-12T01:17:33;-0.70;99.90
17442;DHT22;8838;50.144;8.176;2023-03-12T01:20:00;-0.70;99.90
17442;DHT22;8838;50.144;8.176;2023-03-12T01:22:27;-0.70;99.90
17442;DHT22;8838;50.144;8.176;2023-03-12T01:24:53;-0.70;99.90
17442;DHT22;8838;50.144;8.176;2023-03-12T01:27:20;-0.70;99.90
17442;DHT22;8838;50.144;8.176;2023-03-12T01:29:51;-0.60;99.90
17442;DHT22;8838;50.144;8.176;2023-03-12T01:32:18;-0.60;99.90
17442;DHT22;8838;50.144;8.176;2023-03-12T01:34:45;-0.60;99.90
17442;DHT22;8838;50.144;8.176;2023-03-12T01:37:12;-0.60;99.90
17442;DHT22;8838;50.144;8.176;2023-03-12T01:39:39;-0.50;99.90
17442;DHT22;8838;50.144;8.176;2023-03-12T01:42:06;-0.50;99.90
17442;DHT22;8838;50.144;8.176;2023-03-12T01:44:53;-0.40;99.90
17442;DHT22;8838;50.144;8.176;2023-03-12T01:47:20;-0.40;99.90
17442;DHT22;8838;50.144;8.176;2023-03-12T01:49:48;-0.30;99.90
17442;DHT22;8838;50.144;8.176;2023-03-12T01:52:17;-0.30;99.90
17442;DHT22;8838;50.144;8.176;2023-03-12T01:54:50;-0.20;99.90
17442;DHT22;8838;50.144;8.176;2023-03-12T01:57:20;-0.20;99.90
17442;DHT22;8838;50.144;8.176;2023-03-12T01:59:49;-0.20;99.90
17442;DHT22;8838;50.144;8.176;2023-03-12T02:02:18;-0.20;99.90
17442;DHT22;8838;50.144;8.176;2023-03-12T02:04:51;-0.10;99.90
17442;DHT22;8838;50.144;8.176;2023-03-12T02:07:22;-0.10;99.90
17442;DHT22;8838;50.144;8.176;2023-03-12T02:09:49;-0.10;99.90
17442;DHT22;8838;50.144;8.176;2023-03-12T02:12:16;-0.10;99.90
17442;DHT22;8838;50.144;8.176;2023-03-12T02:14:43;-0.10;99.90
17442;DHT22;8838;50.144;8.176;2023-03-12T02:17:10;-0.10;99.90
17442;DHT22;8838;50.144;8.176;2023-03-12T02:19:43;-0.10;99.90
17442;DHT22;8838;50.144;8.176;2023-03-12T02:22:13;0.00;99.90
17442;DHT22;8838;50.144;8.176;2023-03-12T02:24:45;0.00;99.90
17442;DHT22;8838;50.144;8.176;2023-03-12T02:27:15;0.00;99.90
17442;DHT22;8838;50.144;8.176;2023-03-12T02:29:44;0.00;99.90
17442;DHT22;8838;50.144;8.176;2023-03-12T02:32:16;0.10;99.90
17442;DHT22;8838;50.144;8.176;2023-03-12T02:34:43;0.20;99.90
17442;DHT22;8838;50.144;8.176;2023-03-12T02:37:12;0.20;99.90
17442;DHT22;8838;50.144;8.176;2023-03-12T02:39:40;0.20;99.90
17442;DHT22;8838;50.144;8.176;2023-03-12T02:42:08;0.20;99.90
17442;DHT22;8838;50.144;8.176;2023-03-12T02:44:36;0.20;99.90
17442;DHT22;8838;50.144;8.176;2023-03-12T02:47:03;0.20;99.90
17442;DHT22;8838;50.144;8.176;2023-03-12T02:49:32;0.20;99.90
17442;DHT22;8838;50.144;8.176;2023-03-12T02:52:00;0.20;99.90
17442;DHT22;8838;50.144;8.176;2023-03-12T02:54:27;0.30;99.90
17442;DHT22;8838;50.144;8.176;2023-03-12T02:56:54;0.20;99.90
17442;DHT22;8838;50.144;8.176;2023-03-12T02:59:22;0.30;99.90
17442;DHT22;8838;50.144;8.176;2023-03-12T03:01:53;0.30;99.90
17442;DHT22;8838;50.144;8.176;2023-03-12T03:04:20;0.40;99.90
17442;DHT22;8838;50.144;8.176;2023-03-12T03:06:48;0.40;99.90
17442;DHT22;8838;50.144;8.176;2023-03-12T03:09:15;0.40;99.90
17442;DHT22;8838;50.144;8.176;2023-03-12T03:11:42;0.40;99.90
17442;DHT22;8838;50.144;8.176;2023-03-12T03:14:08;0.40;99.90
17442;DHT22;8838;50.144;8.176;2023-03-12T03:16:35;0.40;99.90
17442;DHT22;8838;50.144;8.176;2023-03-12T03:19:04;0.40;99.90
17442;DHT22;8838;50.144;8.176;2023-03-12T03:21:31;0.40;99.90
17442;DHT22;8838;50.144;8.176;2023-03-12T03:23:58;0.40;99.90
17442;DHT22;8838;50.144;8.176;2023-03-12T03:26:25;0.50;99.90
17442;DHT22;8838;50.144;8.176;2023-03-12T03:28:52;0.50;99.90
17442;DHT22;8838;50.144;8.176;2023-03-12T03:31:19;0.60;99.90
17442;DHT22;8838;50.144;8.176;2023-03-12T03:33:47;0.60;99.90
17442;DHT22;8838;50.144;8.176;2023-03-12T03:36:15;0.60;99.90
17442;DHT22;8838;50.144;8.176;2023-03-12T03:38:44;0.60;99.90
17442;DHT22;8838;50.144;8.176;2023-03-12T03:41:14;0.60;99.90
17442;DHT22;8838;50.144;8.176;2023-03-12T03:43:41;0.50;99.90
17442;DHT22;8838;50.144;8.176;2023-03-12T03:46:10;0.50;99.90
17442;DHT22;8838;50.144;8.176;2023-03-12T03:48:39;0.50;99.90
17442;DHT22;8838;50.144;8.176;2023-03-12T03:51:07;0.40;99.90
17442;DHT22;8838;50.144;8.176;2023-03-12T03:53:35;0.50;99.90
17442;DHT22;8838;50.144;8.176;2023-03-12T03:56:06;0.50;99.90
17442;DHT22;8838;50.144;8.176;2023-03-12T03:58:33;0.50;99.90
17442;DHT22;8838;50.144;8.176;2023-03-12T04:01:00;0.50;99.90
17442;DHT22;8838;50.144;8.176;2023-03-12T04:03:27;0.40;99.90
17442;DHT22;8838;50.144;8.176;2023-03-12T04:05:55;0.40;99.90
17442;DHT22;8838;50.144;8.176;2023-03-12T04:08:22;0.40;99.90
17442;DHT22;8838;50.144;8.176;2023-03-12T04:10:50;0.40;99.90
17442;DHT22;8838;50.144;8.176;2023-03-12T04:13:17;0.50;99.90
17442;DHT22;8838;50.144;8.176;2023-03-12T04:15:48;0.50;99.90
17442;DHT22;8838;50.144;8.176;2023-03-12T04:18:15;0.40;99.90
17442;DHT22;8838;50.144;8.176;2023-03-12T04:20:42;0.40;99.90
17442;DHT22;8838;50.144;8.176;2023-03-12T04:23:09;0.40;99.90
17442;DHT22;8838;50.144;8.176;2023-03-12T04:25:36;0.40;99.90
17442;DHT22;8838;50.144;8.176;2023-03-12T04:28:05;0.40;99.90
17442;DHT22;8838;50.144;8.176;2023-03-12T04:30:32;0.50;99.90
17442;DHT22;8838;50.144;8.176;2023-03-12T04:32:59;0.40;99.90
17442;DHT22;8838;50.144;8.176;2023-03-12T04:35:26;0.40;99.90
17442;DHT22;8838;50.144;8.176;2023-03-12T04:37:53;0.40;99.90
17442;DHT22;8838;50.144;8.176;2023-03-12T04:40:20;0.40;99.90
17442;DHT22;8838;50.144;8.176;2023-03-12T04:42:47;0.50;99.90
17442;DHT22;8838;50.144;8.176;2023-03-12T04:45:15;0.50;99.90
17442;DHT22;8838;50.144;8.176;2023-03-12T04:47:42;0.60;99.90
17442;DHT22;8838;50.144;8.176;2023-03-12T04:50:10;0.60;99.90
17442;DHT22;8838;50.144;8.176;2023-03-12T04:52:37;0.60;99.90
17442;DHT22;8838;50.144;8.176;2023-03-12T04:55:05;0.60;99.90
17442;DHT22;8838;50.144;8.176;2023-03-12T04:57:32;0.60;99.90
17442;DHT22;8838;50.144;8.176;2023-03-12T04:59:59;0.60;99.90
17442;DHT22;8838;50.144;8.176;2023-03-12T05:02:27;0.60;99.90
17442;DHT22;8838;50.144;8.176;2023-03-12T05:04:55;0.60;99.90
17442;DHT22;8838;50.144;8.176;2023-03-12T05:07:22;0.60;99.90
17442;DHT22;8838;50.144;8.176;2023-03-12T05:09:49;0.60;99.90
17442;DHT22;8838;50.144;8.176;2023-03-12T05:12:16;0.60;99.90
17442;DHT22;8838;50.144;8.176;2023-03-12T05:14:42;0.60;99.90
17442;DHT22;8838;50.144;8.176;2023-03-12T05:17:09;0.60;99.90
17442;DHT22;8838;50.144;8.176;2023-03-12T05:19:37;0.60;99.90
17442;DHT22;8838;50.144;8.176;2023-03-12T05:22:04;0.60;99.90
17442;DHT22;8838;50.144;8.176;2023-03-12T05:24:31;0.60;99.90
17442;DHT22;8838;50.144;8.176;2023-03-12T05:26:58;0.60;99.90
17442;DHT22;8838;50.144;8.176;2023-03-12T05:29:25;0.60;99.90
17442;DHT22;8838;50.144;8.176;2023-03-12T05:31:51;0.60;99.90
17442;DHT22;8838;50.144;8.176;2023-03-12T05:34:18;0.60;99.90
17442;DHT22;8838;50.144;8.176;2023-03-12T05:36:47;0.50;99.90
17442;DHT22;8838;50.144;8.176;2023-03-12T05:39:14;0.50;99.90
17442;DHT22;8838;50.144;8.176;2023-03-12T05:41:41;0.50;99.90
17442;DHT22;8838;50.144;8.176;2023-03-12T05:44:10;0.50;99.90
17442;DHT22;8838;50.144;8.176;2023-03-12T05:46:37;0.50;99.90
17442;DHT22;8838;50.144;8.176;2023-03-12T05:49:03;0.40;99.90
17442;DHT22;8838;50.144;8.176;2023-03-12T05:51:30;0.50;99.90
17442;DHT22;8838;50.144;8.176;2023-03-12T05:53:58;0.50;99.90
17442;DHT22;8838;50.144;8.176;2023-03-12T05:56:25;0.50;99.90
17442;DHT22;8838;50.144;8.176;2023-03-12T05:58:52;0.50;99.90
17442;DHT22;8838;50.144;8.176;2023-03-12T06:01:21;0.40;99.90
17442;DHT22;8838;50.144;8.176;2023-03-12T06:03:48;0.40;99.90
17442;DHT22;8838;50.144;8.176;2023-03-12T06:06:16;0.40;99.90
17442;DHT22;8838;50.144;8.176;2023-03-12T06:08:43;0.30;99.90
17442;DHT22;8838;50.144;8.176;2023-03-12T06:11:11;0.20;99.90
17442;DHT22;8838;50.144;8.176;2023-03-12T06:13:41;0.20;99.90
17442;DHT22;8838;50.144;8.176;2023-03-12T06:16:11;0.20;99.90
17442;DHT22;8838;50.144;8.176;2023-03-12T06:18:40;0.20;99.90
17442;DHT22;8838;50.144;8.176;2023-03-12T06:21:08;0.20;99.90
17442;DHT22;8838;50.144;8.176;2023-03-12T06:23:36;0.30;99.90
17442;DHT22;8838;50.144;8.176;2023-03-12T06:26:03;0.30;99.90
17442;DHT22;8838;50.144;8.176;2023-03-12T06:28:32;0.30;99.90
17442;DHT22;8838;50.144;8.176;2023-03-12T06:30:59;0.30;99.90
17442;DHT22;8838;50.144;8.176;2023-03-12T06:33:26;0.30;99.90
17442;DHT22;8838;50.144;8.176;2023-03-12T06:35:54;0.40;99.90
17442;DHT22;8838;50.144;8.176;2023-03-12T06:38:21;0.40;99.90
17442;DHT22;8838;50.144;8.176;2023-03-12T06:40:55;0.40;99.90
17442;DHT22;8838;50.144;8.176;2023-03-12T06:43:23;0.50;99.90
17442;DHT22;8838;50.144;8.176;2023-03-12T06:45:53;0.40;99.90
17442;DHT22;8838;50.144;8.176;2023-03-12T06:48:20;0.40;99.90
17442;DHT22;8838;50.144;8.176;2023-03-12T06:50:47;0.40;99.90
17442;DHT22;8838;50.144;8.176;2023-03-12T06:53:17;0.30;99.90
17442;DHT22;8838;50.144;8.176;2023-03-12T06:55:44;0.30;99.90
17442;DHT22;8838;50.144;8.176;2023-03-12T06:58:11;0.20;99.90
17442;DHT22;8838;50.144;8.176;2023-03-12T07:00:38;0.20;99.90
17442;DHT22;8838;50.144;8.176;2023-03-12T07:03:06;0.20;99.90
17442;DHT22;8838;50.144;8.176;2023-03-12T07:05:33;0.20;99.90
17442;DHT22;8838;50.144;8.176;2023-03-12T07:08:00;0.10;99.90
17442;DHT22;8838;50.144;8.176;2023-03-12T07:10:27;0.10;99.90
17442;DHT22;8838;50.144;8.176;2023-03-12T07:12:55;0.10;99.90
17442;DHT22;8838;50.144;8.176;2023-03-12T07:15:22;0.00;99.90
17442;DHT22;8838;50.144;8.176;2023-03-12T07:17:49;0.10;99.90
17442;DHT22;8838;50.144;8.176;2023-03-12T07:20:18;0.00;99.90
17442;DHT22;8838;50.144;8.176;2023-03-12T07:22:44;0.00;99.90
17442;DHT22;8838;50.144;8.176;2023-03-12T07:25:11;0.10;99.90
17442;DHT22;8838;50.144;8.176;2023-03-12T07:27:38;0.10;99.90
17442;DHT22;8838;50.144;8.176;2023-03-12T07:30:06;0.10;99.90
17442;DHT22;8838;50.144;8.176;2023-03-12T07:32:33;0.00;99.90
17442;DHT22;8838;50.144;8.176;2023-03-12T07:35:01;0.00;99.90
17442;DHT22;8838;50.144;8.176;2023-03-12T07:37:29;0.00;99.90
17442;DHT22;8838;50.144;8.176;2023-03-12T07:39:56;0.00;99.90
17442;DHT22;8838;50.144;8.176;2023-03-12T07:42:23;0.10;99.90
17442;DHT22;8838;50.144;8.176;2023-03-12T07:44:50;0.00;99.90
17442;DHT22;8838;50.144;8.176;2023-03-12T07:47:17;0.10;99.90
17442;DHT22;8838;50.144;8.176;2023-03-12T07:49:43;0.10;99.90
17442;DHT22;8838;50.144;8.176;2023-03-12T07:52:13;0.20;99.90
17442;DHT22;8838;50.144;8.176;2023-03-12T07:54:41;0.20;99.90
17442;DHT22;8838;50.144;8.176;2023-03-12T07:57:08;0.20;99.90
17442;DHT22;8838;50.144;8.176;2023-03-12T07:59:35;0.20;99.90
17442;DHT22;8838;50.144;8.176;2023-03-12T08:02:02;0.20;99.90
17442;DHT22;8838;50.144;8.176;2023-03-12T08:04:29;0.20;99.90
17442;DHT22;8838;50.144;8.176;2023-03-12T08:06:55;0.30;99.90
17442;DHT22;8838;50.144;8.176;2023-03-12T08:09:22;0.20;99.90
17442;DHT22;8838;50.144;8.176;2023-03-12T08:11:50;0.10;99.90
17442;DHT22;8838;50.144;8.176;2023-03-12T08:14:17;0.20;99.90
17442;DHT22;8838;50.144;8.176;2023-03-12T08:16:44;0.20;99.90
17442;DHT22;8838;50.144;8.176;2023-03-12T08:19:11;0.20;99.90
17442;DHT22;8838;50.144;8.176;2023-03-12T08:21:37;0.20;99.90
17442;DHT22;8838;50.144;8.176;2023-03-12T08:24:04;0.20;99.90
17442;DHT22;8838;50.144;8.176;2023-03-12T08:26:34;0.20;99.90
17442;DHT22;8838;50.144;8.176;2023-03-12T08:29:04;0.20;99.90
17442;DHT22;8838;50.144;8.176;2023-03-12T08:31:31;0.30;99.90
17442;DHT22;8838;50.144;8.176;2023-03-12T08:33:58;0.40;99.90
17442;DHT22;8838;50.144;8.176;2023-03-12T08:36:24;0.40;99.90
17442;DHT22;8838;50.144;8.176;2023-03-12T08:38:51;0.50;99.90
17442;DHT22;8838;50.144;8.176;2023-03-12T08:41:18;0.60;99.90
17442;DHT22;8838;50.144;8.176;2023-03-12T08:43:45;0.70;99.90
17442;DHT22;8838;50.144;8.176;2023-03-12T08:46:13;0.80;99.90
17442;DHT22;8838;50.144;8.176;2023-03-12T08:48:40;0.70;99.90
17442;DHT22;8838;50.144;8.176;2023-03-12T08:51:07;0.70;99.90
17442;DHT22;8838;50.144;8.176;2023-03-12T08:53:35;0.60;99.90
17442;DHT22;8838;50.144;8.176;2023-03-12T08:56:02;0.50;99.90
17442;DHT22;8838;50.144;8.176;2023-03-12T08:58:31;0.60;99.90
17442;DHT22;8838;50.144;8.176;2023-03-12T09:00:58;0.60;99.90
17442;DHT22;8838;50.144;8.176;2023-03-12T09:03:26;0.60;99.90
17442;DHT22;8838;50.144;8.176;2023-03-12T09:06:04;0.70;99.90
17442;DHT22;8838;50.144;8.176;2023-03-12T09:08:32;0.70;99.90
17442;DHT22;8838;50.144;8.176;2023-03-12T09:10:59;0.70;99.90
17442;DHT22;8838;50.144;8.176;2023-03-12T09:13:27;0.80;99.90
17442;DHT22;8838;50.144;8.176;2023-03-12T09:15:58;0.70;99.90
17442;DHT22;8838;50.144;8.176;2023-03-12T09:18:27;0.50;99.90
17442;DHT22;8838;50.144;8.176;2023-03-12T09:20:54;0.60;99.90
17442;DHT22;8838;50.144;8.176;2023-03-12T09:23:21;0.70;99.90
17442;DHT22;8838;50.144;8.176;2023-03-12T09:25:48;0.90;99.90
17442;DHT22;8838;50.144;8.176;2023-03-12T09:28:15;1.00;99.90
17442;DHT22;8838;50.144;8.176;2023-03-12T09:30:42;1.10;99.90
17442;DHT22;8838;50.144;8.176;2023-03-12T09:33:09;1.10;99.90
17442;DHT22;8838;50.144;8.176;2023-03-12T09:35:38;1.20;99.90
17442;DHT22;8838;50.144;8.176;2023-03-12T09:38:11;1.30;99.90
17442;DHT22;8838;50.144;8.176;2023-03-12T09:40:38;1.30;99.90
17442;DHT22;8838;50.144;8.176;2023-03-12T09:43:10;1.40;99.90
17442;DHT22;8838;50.144;8.176;2023-03-12T09:45:43;1.40;99.90
17442;DHT22;8838;50.144;8.176;2023-03-12T09:48:14;1.50;99.90
17442;DHT22;8838;50.144;8.176;2023-03-12T09:50:45;1.60;99.90
17442;DHT22;8838;50.144;8.176;2023-03-12T09:53:18;1.60;99.90
17442;DHT22;8838;50.144;8.176;2023-03-12T09:55:50;1.60;99.90
17442;DHT22;8838;50.144;8.176;2023-03-12T09:58:24;1.70;99.90
17442;DHT22;8838;50.144;8.176;2023-03-12T10:00:56;1.70;99.90
17442;DHT22;8838;50.144;8.176;2023-03-12T10:03:40;1.70;99.90
17442;DHT22;8838;50.144;8.176;2023-03-12T10:06:15;1.60;99.90
17442;DHT22;8838;50.144;8.176;2023-03-12T10:08:57;1.60;99.90
17442;DHT22;8838;50.144;8.176;2023-03-12T10:11:34;1.50;99.90
17442;DHT22;8838;50.144;8.176;2023-03-12T10:14:15;1.50;99.90
17442;DHT22;8838;50.144;8.176;2023-03-12T10:16:57;1.60;99.90
17442;DHT22;8838;50.144;8.176;2023-03-12T10:19:45;1.70;99.90
17442;DHT22;8838;50.144;8.176;2023-03-12T10:22:29;1.80;99.90
17442;DHT22;8838;50.144;8.176;2023-03-12T10:25:07;1.80;99.90
17442;DHT22;8838;50.144;8.176;2023-03-12T10:27:39;1.90;99.90
17442;DHT22;8838;50.144;8.176;2023-03-12T10:30:15;1.90;99.90
17442;DHT22;8838;50.144;8.176;2023-03-12T10:32:45;2.00;99.90
17442;DHT22;8838;50.144;8.176;2023-03-12T10:35:15;2.10;99.90
17442;DHT22;8838;50.144;8.176;2023-03-12T10:37:46;2.00;99.90
17442;DHT22;8838;50.144;8.176;2023-03-12T10:40:16;2.10;99.90
17442;DHT22;8838;50.144;8.176;2023-03-12T10:42:43;2.20;99.90
17442;DHT22;8838;50.144;8.176;2023-03-12T10:45:18;2.10;99.90
17442;DHT22;8838;50.144;8.176;2023-03-12T10:47:49;2.10;99.90
17442;DHT22;8838;50.144;8.176;2023-03-12T10:50:19;2.20;99.90
17442;DHT22;8838;50.144;8.176;2023-03-12T10:52:49;2.30;99.90
17442;DHT22;8838;50.144;8.176;2023-03-12T10:55:23;2.50;99.90
17442;DHT22;8838;50.144;8.176;2023-03-12T10:57:51;2.70;99.90
17442;DHT22;8838;50.144;8.176;2023-03-12T11:00:21;2.90;99.90
17442;DHT22;8838;50.144;8.176;2023-03-12T11:02:57;3.10;99.90
17442;DHT22;8838;50.144;8.176;2023-03-12T11:05:26;3.20;99.90
17442;DHT22;8838;50.144;8.176;2023-03-12T11:07:56;3.30;99.90
17442;DHT22;8838;50.144;8.176;2023-03-12T11:10:25;3.40;99.90
17442;DHT22;8838;50.144;8.176;2023-03-12T11:13:04;3.50;99.90
17442;DHT22;8838;50.144;8.176;2023-03-12T11:15:38;3.60;99.90
17442;DHT22;8838;50.144;8.176;2023-03-12T11:18:30;3.50;99.90
17442;DHT22;8838;50.144;8.176;2023-03-12T11:21:14;3.40;99.90
17442;DHT22;8838;50.144;8.176;2023-03-12T11:23:44;3.20;99.90
17442;DHT22;8838;50.144;8.176;2023-03-12T11:26:17;3.10;99.90
17442;DHT22;8838;50.144;8.176;2023-03-12T11:28:50;3.00;99.90
17442;DHT22;8838;50.144;8.176;2023-03-12T11:31:24;3.00;99.90
17442;DHT22;8838;50.144;8.176;2023-03-12T11:33:55;3.10;99.90
17442;DHT22;8838;50.144;8.176;2023-03-12T11:36:36;3.20;99.90
17442;DHT22;8838;50.144;8.176;2023-03-12T11:39:14;3.20;99.90
17442;DHT22;8838;50.144;8.176;2023-03-12T11:41:56;3.40;99.90
17442;DHT22;8838;50.144;8.176;2023-03-12T11:44:26;3.70;99.90
17442;DHT22;8838;50.144;8.176;2023-03-12T11:47:15;3.90;99.90
17442;DHT22;8838;50.144;8.176;2023-03-12T11:50:01;3.90;99.90
17442;DHT22;8838;50.144;8.176;2023-03-12T11:52:39;4.00;99.90
17442;DHT22;8838;50.144;8.176;2023-03-12T11:55:19;4.00;99.90
17442;DHT22;8838;50.144;8.176;2023-03-12T11:57:57;4.10;99.90
17442;DHT22;8838;50.144;8.176;2023-03-12T12:00:33;4.10;99.90
17442;DHT22;8838;50.144;8.176;2023-03-12T12:06:22;4.00;99.90
17442;DHT22;8838;50.144;8.176;2023-03-12T12:11:45;4.10;99.90
17442;DHT22;8838;50.144;8.176;2023-03-12T12:14:29;4.10;99.90
17442;DHT22;8838;50.144;8.176;2023-03-12T12:17:06;4.10;99.90
17442;DHT22;8838;50.144;8.176;2023-03-12T12:19:46;4.30;99.90
17442;DHT22;8838;50.144;8.176;2023-03-12T12:22:29;4.40;99.90
17442;DHT22;8838;50.144;8.176;2023-03-12T12:25:15;4.90;99.90
17442;DHT22;8838;50.144;8.176;2023-03-12T12:27:56;5.30;99.90
17442;DHT22;8838;50.144;8.176;2023-03-12T12:30:41;5.70;99.90
17442;DHT22;8838;50.144;8.176;2023-03-12T12:33:25;6.10;99.90
17442;DHT22;8838;50.144;8.176;2023-03-12T12:35:56;6.30;99.90
17442;DHT22;8838;50.144;8.176;2023-03-12T12:38:27;6.50;99.90
17442;DHT22;8838;50.144;8.176;2023-03-12T12:41:03;6.80;99.90
17442;DHT22;8838;50.144;8.176;2023-03-12T12:43:37;6.90;99.90
17442;DHT22;8838;50.144;8.176;2023-03-12T12:46:10;6.90;99.90
17442;DHT22;8838;50.144;8.176;2023-03-12T12:48:40;7.00;99.90
17442;DHT22;8838;50.144;8.176;2023-03-12T12:51:09;7.00;99.90
17442;DHT22;8838;50.144;8.176;2023-03-12T12:53:42;7.10;99.90
17442;DHT22;8838;50.144;8.176;2023-03-12T12:56:19;7.10;99.90
17442;DHT22;8838;50.144;8.176;2023-03-12T12:59:08;7.10;99.90
17442;DHT22;8838;50.144;8.176;2023-03-12T13:01:46;7.20;99.90
17442;DHT22;8838;50.144;8.176;2023-03-12T13:04:16;7.30;99.90
17442;DHT22;8838;50.144;8.176;2023-03-12T13:09:40;7.30;99.90
17442;DHT22;8838;50.144;8.176;2023-03-12T13:12:14;7.40;99.90
17442;DHT22;8838;50.144;8.176;2023-03-12T13:14:43;7.40;99.90
17442;DHT22;8838;50.144;8.176;2023-03-12T13:17:28;7.40;99.90
17442;DHT22;8838;50.144;8.176;2023-03-12T13:20:14;7.40;99.90
17442;DHT22;8838;50.144;8.176;2023-03-12T13:22:58;7.50;99.90
17442;DHT22;8838;50.144;8.176;2023-03-12T13:25:35;7.50;99.90
17442;DHT22;8838;50.144;8.176;2023-03-12T13:28:29;7.40;99.90
17442;DHT22;8838;50.144;8.176;2023-03-12T13:31:01;7.30;99.90
17442;DHT22;8838;50.144;8.176;2023-03-12T13:33:46;7.10;99.90
17442;DHT22;8838;50.144;8.176;2023-03-12T13:36:21;7.00;99.90
17442;DHT22;8838;50.144;8.176;2023-03-12T13:38:54;6.80;99.90
17442;DHT22;8838;50.144;8.176;2023-03-12T13:41:34;6.80;99.90
17442;DHT22;8838;50.144;8.176;2023-03-12T13:44:27;6.70;99.90
17442;DHT22;8838;50.144;8.176;2023-03-12T13:46:59;6.60;99.90
17442;DHT22;8838;50.144;8.176;2023-03-12T13:49:33;6.60;99.90
17442;DHT22;8838;50.144;8.176;2023-03-12T13:52:09;6.70;99.90
17442;DHT22;8838;50.144;8.176;2023-03-12T13:54:43;6.80;99.90
17442;DHT22;8838;50.144;8.176;2023-03-12T13:57:19;7.00;99.90
17442;DHT22;8838;50.144;8.176;2023-03-12T13:59:49;6.90;99.90
17442;DHT22;8838;50.144;8.176;2023-03-12T14:02:25;7.00;99.90
17442;DHT22;8838;50.144;8.176;2023-03-12T14:05:00;7.00;99.90
17442;DHT22;8838;50.144;8.176;2023-03-12T14:10:31;7.20;99.90
17442;DHT22;8838;50.144;8.176;2023-03-12T14:13:09;7.20;99.90
17442;DHT22;8838;50.144;8.176;2023-03-12T14:15:43;7.30;99.90
17442;DHT22;8838;50.144;8.176;2023-03-12T14:18:17;7.50;99.90
17442;DHT22;8838;50.144;8.176;2023-03-12T14:20:52;7.70;99.90
17442;DHT22;8838;50.144;8.176;2023-03-12T14:23:25;7.90;99.90
17442;DHT22;8838;50.144;8.176;2023-03-12T14:25:57;8.10;99.90
17442;DHT22;8838;50.144;8.176;2023-03-12T14:28:24;8.20;99.90
17442;DHT22;8838;50.144;8.176;2023-03-12T14:30:57;8.40;99.90
17442;DHT22;8838;50.144;8.176;2023-03-12T14:33:31;8.50;99.90
17442;DHT22;8838;50.144;8.176;2023-03-12T14:36:04;8.50;99.90
17442;DHT22;8838;50.144;8.176;2023-03-12T14:38:34;8.60;99.90
17442;DHT22;8838;50.144;8.176;2023-03-12T14:41:05;8.70;99.90
17442;DHT22;8838;50.144;8.176;2023-03-12T14:43:39;8.70;99.90
17442;DHT22;8838;50.144;8.176;2023-03-12T14:46:14;8.80;99.90
17442;DHT22;8838;50.144;8.176;2023-03-12T14:48:46;8.90;99.90
17442;DHT22;8838;50.144;8.176;2023-03-12T14:51:18;8.90;99.90
17442;DHT22;8838;50.144;8.176;2023-03-12T14:53:45;8.90;99.90
17442;DHT22;8838;50.144;8.176;2023-03-12T14:56:15;8.90;99.90
17442;DHT22;8838;50.144;8.176;2023-03-12T14:58:51;9.00;99.90
17442;DHT22;8838;50.144;8.176;2023-03-12T15:01:22;9.00;99.90
17442;DHT22;8838;50.144;8.176;2023-03-12T15:03:54;9.10;99.90
17442;DHT22;8838;50.144;8.176;2023-03-12T15:06:27;9.10;99.90
17442;DHT22;8838;50.144;8.176;2023-03-12T15:08:59;9.20;99.90
17442;DHT22;8838;50.144;8.176;2023-03-12T15:11:29;9.20;99.90
17442;DHT22;8838;50.144;8.176;2023-03-12T15:14:01;9.20;99.90
17442;DHT22;8838;50.144;8.176;2023-03-12T15:16:29;9.30;99.90
17442;DHT22;8838;50.144;8.176;2023-03-12T15:18:57;9.30;99.90
17442;DHT22;8838;50.144;8.176;2023-03-12T15:21:26;9.30;99.90
17442;DHT22;8838;50.144;8.176;2023-03-12T15:23:53;9.30;99.90
17442;DHT22;8838;50.144;8.176;2023-03-12T15:26:28;9.30;99.90
17442;DHT22;8838;50.144;8.176;2023-03-12T15:28:58;9.40;99.90
17442;DHT22;8838;50.144;8.176;2023-03-12T15:31:26;9.40;99.90
17442;DHT22;8838;50.144;8.176;2023-03-12T15:34:02;9.30;99.90
17442;DHT22;8838;50.144;8.176;2023-03-12T15:36:29;9.30;99.90
17442;DHT22;8838;50.144;8.176;2023-03-12T15:38:59;9.30;99.90
17442;DHT22;8838;50.144;8.176;2023-03-12T15:41:40;9.30;99.90
17442;DHT22;8838;50.144;8.176;2023-03-12T15:44:14;9.40;99.90
17442;DHT22;8838;50.144;8.176;2023-03-12T15:46:44;9.50;99.90
17442;DHT22;8838;50.144;8.176;2023-03-12T15:49:19;9.50;99.90
17442;DHT22;8838;50.144;8.176;2023-03-12T15:51:57;9.50;99.90
17442;DHT22;8838;50.144;8.176;2023-03-12T15:54:26;9.50;99.90
17442;DHT22;8838;50.144;8.176;2023-03-12T15:59:35;9.60;99.90
17442;DHT22;8838;50.144;8.176;2023-03-12T16:02:02;9.60;99.90
17442;DHT22;8838;50.144;8.176;2023-03-12T16:04:31;9.60;99.90
17442;DHT22;8838;50.144;8.176;2023-03-12T16:06:58;9.60;99.90
17442;DHT22;8838;50.144;8.176;2023-03-12T16:09:27;9.70;99.90
17442;DHT22;8838;50.144;8.176;2023-03-12T16:11:57;9.70;99.90
17442;DHT22;8838;50.144;8.176;2023-03-12T16:14:27;9.70;99.90
17442;DHT22;8838;50.144;8.176;2023-03-12T16:16:55;9.60;99.90
17442;DHT22;8838;50.144;8.176;2023-03-12T16:19:23;9.60;99.90
17442;DHT22;8838;50.144;8.176;2023-03-12T16:21:53;9.70;99.90
17442;DHT22;8838;50.144;8.176;2023-03-12T16:24:20;9.70;99.90
17442;DHT22;8838;50.144;8.176;2023-03-12T16:26:49;9.70;99.90
17442;DHT22;8838;50.144;8.176;2023-03-12T16:29:18;9.60;99.90
17442;DHT22;8838;50.144;8.176;2023-03-12T16:31:49;9.60;99.90
17442;DHT22;8838;50.144;8.176;2023-03-12T16:34:17;9.60;99.90